Terminal Aerodrome Forecast
Issued by NWS Spokane, WA

Home | Current Version | Previous Version | Text Only | Print | Product List | Glossary On
Versions: 1 2 3 4 5 6 7 8 9 10 11 12 13 14 15 16 17 18 19 20 21 22
000
FTUS46 KOTX 231731
TAFGEG
TAF
KGEG 231731Z 2318/2418 19014KT P6SM -SHRA BKN019 BKN040 OVC070
     FM232200 21015G23KT 6SM -TSRA BKN025 BKN040CB OVC060
     FM240100 22015KT P6SM BKN050
     FM241000 21009KT P6SM SCT012 BKN080=

USA.gov is the U.S. government's official web portal to all federal, state and local government web resources and services.